Time;durP1;ratioP1;P1;durP2;ratioP2;P2;SDS_P1;SDS_P2;PMS_P1;PMS_P2;Temp;Humidity;BMP_temperature;BMP_pressure;BME280_temperature;BME280_humidity;BME280_pressure;Samples;Min_cycle;Max_cycle;Signal;HPM_P1;HPM_P2
2023/10/17 03:11:15;;;;;;;;;;;;;;;19.15;37.25;101284.77;108319;1265;551803;-90
2023/10/17 03:25:19;;;;;;;;;;;;;;;19.12;37.26;101286.54;108874;1265;551252;-93
2023/10/17 06:19:08;;;;;;;;;;;;;;;18.60;37.08;101344.84;109121;1265;72437;-89
2023/10/17 06:55:07;;;;;;;;;;;;;;;18.70;36.82;101343.43;109028;1265;71264;-90
2023/10/17 07:01:34;;;;;;;;;;;;;;;;;;;;;
2023/10/17 07:04:14;;;;;;;;;;;;;;;18.74;36.87;101355.67;108970;1266;72602;-91
2023/10/17 07:53:21;;;;;;;;;;;;;;;18.81;36.78;101338.27;108422;1265;552279;-91
2023/10/17 08:51:06;;;;;;;;;;;;;;;18.80;36.49;101336.88;109059;1265;65574;-91
2023/10/17 09:01:39;;;;;;;;;;;;;;;18.85;36.65;101322.83;108975;1267;66261;-90
2023/10/17 09:21:50;;;;;;;;;;;;;;;18.95;36.64;101304.91;109050;1265;72256;-90
2023/10/17 09:24:40;;;;;;;;;;;;;;;18.95;36.67;101305.55;109064;1266;80383;-91
2023/10/17 09:27:06;;;;;;;;;;;;;;;18.95;36.74;101305.15;109033;1265;72039;-91
2023/10/17 09:29:49;;;;;;;;;;;;;;;18.96;36.84;101308.30;108921;1265;66998;-89
2023/10/17 09:32:37;;;;;;;;;;;;;;;18.92;36.50;101301.66;109036;1265;66614;-89
2023/10/17 09:35:15;;;;;;;;;;;;;;;18.81;36.42;101295.48;109039;1266;73478;-90
2023/10/17 09:37:46;;;;;;;;;;;;;;;18.70;36.39;101300.00;108994;1267;81840;-89
2023/10/17 09:40:12;;;;;;;;;;;;;;;18.71;36.47;101297.26;109134;1267;72320;-90
2023/10/17 09:42:44;;;;;;;;;;;;;;;18.73;36.50;101298.40;109090;1266;66100;-90
2023/10/17 09:47:51;;;;;;;;;;;;;;;18.84;36.61;101298.15;109201;1266;73518;-90
2023/10/17 09:50:23;;;;;;;;;;;;;;;18.88;36.67;101296.27;109086;1266;82058;-92
2023/10/17 09:52:53;;;;;;;;;;;;;;;18.89;36.65;101283.20;109080;1266;77699;-91
2023/10/17 12:52:00;;;;;;;;;;;;;;;19.31;35.38;101064.97;109012;1267;73826;31
2023/10/17 13:11:33;;;;;;;;;;;;;;;19.29;35.19;101052.23;109060;1267;66318;-89
2023/10/17 13:16:56;;;;;;;;;;;;;;;19.29;35.11;101052.80;109000;1265;81086;-87
2023/10/17 13:22:14;;;;;;;;;;;;;;;19.30;34.98;101057.44;109008;1267;66590;-88
2023/10/17 13:33:55;;;;;;;;;;;;;;;19.30;35.03;101067.34;109133;1265;71275;-93
2023/10/17 13:36:29;;;;;;;;;;;;;;;19.31;34.97;101067.14;109072;1265;68017;-88
2023/10/17 14:18:44;;;;;;;;;;;;;;;19.29;34.90;101040.70;109071;1265;66758;-89
2023/10/17 17:06:32;;;;;;;;;;;;;;;19.15;34.26;101033.77;109182;1265;80197;-90
2023/10/17 17:09:00;;;;;;;;;;;;;;;19.15;34.21;101031.95;109124;1266;72148;-89
2023/10/17 17:11:54;;;;;;;;;;;;;;;19.15;34.24;101030.71;109083;1266;66860;31
2023/10/17 17:16:57;;;;;;;;;;;;;;;19.15;34.15;101032.96;109125;1267;73600;-90
2023/10/17 17:19:29;;;;;;;;;;;;;;;19.15;34.15;101032.25;108994;1264;66621;-90
2023/10/17 17:21:57;;;;;;;;;;;;;;;19.15;34.12;101034.96;109086;1265;72212;-90
2023/10/17 17:24:26;;;;;;;;;;;;;;;19.16;34.10;101035.98;109090;1266;67716;-89
2023/10/17 17:26:53;;;;;;;;;;;;;;;19.16;34.00;101035.64;109031;1266;67327;-89
2023/10/17 17:32:30;;;;;;;;;;;;;;;19.17;34.19;101039.93;109101;1266;82055;31
2023/10/17 17:34:56;;;;;;;;;;;;;;;19.17;34.03;101040.34;109014;1268;72012;-89
2023/10/17 17:37:21;;;;;;;;;;;;;;;19.17;34.12;101037.03;109072;1267;66829;-90
2023/10/17 17:39:50;;;;;;;;;;;;;;;19.17;34.04;101035.04;109035;1266;66999;-90
2023/10/17 17:42:21;;;;;;;;;;;;;;;19.17;34.09;101040.00;109059;1267;66110;-90
2023/10/17 17:47:38;;;;;;;;;;;;;;;19.18;34.00;101032.61;109159;1265;72832;-88
2023/10/17 17:50:06;;;;;;;;;;;;;;;19.17;34.02;101028.36;109084;1269;66429;-89
2023/10/17 17:52:31;;;;;;;;;;;;;;;19.17;34.04;101030.30;109042;1267;67177;-89
2023/10/17 17:55:00;;;;;;;;;;;;;;;19.16;34.12;101037.73;109045;1266;66802;-89
2023/10/17 17:57:31;;;;;;;;;;;;;;;19.15;34.09;101037.05;109048;1265;81916;-89
2023/10/17 18:05:25;;;;;;;;;;;;;;;19.13;34.08;101039.92;109250;1265;66196;31
2023/10/17 18:07:50;;;;;;;;;;;;;;;19.12;34.09;101034.04;109101;1267;73384;-90
2023/10/17 18:10:21;;;;;;;;;;;;;;;19.12;34.10;101036.27;108992;1266;68215;-89
2023/10/17 18:12:49;;;;;;;;;;;;;;;19.10;34.04;101036.92;109077;1266;71603;-89
2023/10/17 18:15:16;;;;;;;;;;;;;;;19.11;34.03;101038.81;109110;1266;66300;-90
2023/10/17 18:17:44;;;;;;;;;;;;;;;19.11;34.02;101036.58;109126;1265;67679;-90
2023/10/17 18:22:49;;;;;;;;;;;;;;;19.10;33.99;101030.85;109341;1264;82012;-90
2023/10/17 18:25:20;;;;;;;;;;;;;;;19.11;34.12;101030.25;109134;1265;66179;-90
2023/10/17 18:27:48;;;;;;;;;;;;;;;19.11;34.09;101032.48;109260;1266;66202;-89
2023/10/17 18:33:02;;;;;;;;;;;;;;;19.10;34.11;101029.06;109189;1265;74463;-90
2023/10/17 18:35:34;;;;;;;;;;;;;;;19.11;34.21;101036.52;109073;1266;82037;-89
2023/10/17 18:40:33;;;;;;;;;;;;;;;19.10;34.12;101036.30;109072;1269;66912;-91
2023/10/17 18:48:36;;;;;;;;;;;;;;;19.10;34.08;101032.44;109117;1265;83035;-91
2023/10/17 18:51:13;;;;;;;;;;;;;;;19.10;33.96;101032.68;109106;1266;72081;-91
2023/10/17 19:01:50;;;;;;;;;;;;;;;19.10;34.09;101023.09;109109;1265;82320;-91
2023/10/17 19:04:24;;;;;;;;;;;;;;;19.10;34.07;101023.95;108998;1265;73746;-91
2023/10/17 19:06:54;;;;;;;;;;;;;;;19.10;34.13;101026.14;109051;1265;68263;-91
2023/10/17 19:09:22;;;;;;;;;;;;;;;19.10;34.22;101023.64;109024;1265;66643;-90
2023/10/17 19:11:51;;;;;;;;;;;;;;;19.10;34.12;101022.77;109002;1265;73613;-91
2023/10/17 19:14:40;;;;;;;;;;;;;;;19.10;34.26;101022.37;109027;1266;83027;-91
2023/10/17 19:17:13;;;;;;;;;;;;;;;19.09;34.15;101016.85;109073;1265;72859;31
2023/10/17 19:19:39;;;;;;;;;;;;;;;19.09;34.18;101021.90;108979;1268;66864;-91
2023/10/17 19:22:07;;;;;;;;;;;;;;;19.09;34.19;101021.49;108977;1265;67134;-91
2023/10/17 19:24:41;;;;;;;;;;;;;;;19.10;34.15;101025.02;109055;1265;73337;-92
2023/10/17 19:27:23;;;;;;;;;;;;;;;19.10;34.04;101023.90;109056;1265;83110;-90
2023/10/17 19:32:35;;;;;;;;;;;;;;;19.09;34.10;101020.48;109184;1266;67216;-90
2023/10/17 19:35:10;;;;;;;;;;;;;;;19.09;34.13;101018.48;109002;1265;67696;31
2023/10/17 19:37:36;;;;;;;;;;;;;;;19.09;34.13;101020.73;109000;1267;73902;-90
2023/10/17 19:40:06;;;;;;;;;;;;;;;19.09;34.14;101022.88;109081;1265;66955;-90
2023/10/17 19:42:37;;;;;;;;;;;;;;;19.09;34.20;101025.21;109091;1266;73720;-90
2023/10/17 19:45:05;;;;;;;;;;;;;;;19.09;34.14;101025.27;109057;1265;66931;-90
2023/10/17 19:47:32;;;;;;;;;;;;;;;19.08;34.04;101023.22;109031;1266;66732;-90
2023/10/17 19:50:05;;;;;;;;;;;;;;;19.08;34.12;101025.88;108986;1265;66117;-87
2023/10/17 19:52:30;;;;;;;;;;;;;;;19.08;34.09;101028.22;109085;1265;81879;-90
2023/10/17 19:54:59;;;;;;;;;;;;;;;19.08;34.24;101026.27;109025;1266;66445;-90
2023/10/17 20:00:16;;;;;;;;;;;;;;;19.07;34.11;101029.98;109161;1265;68059;-90
2023/10/17 20:02:42;;;;;;;;;;;;;;;19.08;34.06;101026.07;109036;1265;72690;-90
2023/10/17 20:05:11;;;;;;;;;;;;;;;19.07;33.95;101028.15;109024;1265;82134;-90
2023/10/17 20:07:37;;;;;;;;;;;;;;;19.07;34.07;101021.98;109036;1266;72262;-90
2023/10/17 20:10:14;;;;;;;;;;;;;;;19.07;34.03;101021.11;108981;1266;66394;-90
2023/10/17 20:12:43;;;;;;;;;;;;;;;19.07;34.01;101024.88;109098;1265;66226;-90
2023/10/17 20:15:14;;;;;;;;;;;;;;;19.07;34.01;101024.82;109048;1265;73506;-90
2023/10/17 20:17:46;;;;;;;;;;;;;;;19.07;34.00;101023.86;108973;1265;82869;-89
2023/10/17 20:20:14;;;;;;;;;;;;;;;19.07;34.04;101027.38;109124;1263;72348;-89
2023/10/17 20:25:08;;;;;;;;;;;;;;;19.06;34.14;101029.11;109041;1266;66799;-89
2023/10/17 20:27:34;;;;;;;;;;;;;;;19.06;33.94;101027.01;109023;1265;66924;-89
2023/10/17 20:30:06;;;;;;;;;;;;;;;19.06;34.02;101029.20;109103;1265;66754;-89
2023/10/17 20:32:38;;;;;;;;;;;;;;;19.06;33.97;101023.95;108982;1266;72446;-92
2023/10/17 20:35:08;;;;;;;;;;;;;;;19.06;33.99;101021.29;109009;1266;66736;-89
2023/10/17 20:43:18;;;;;;;;;;;;;;;19.05;34.11;101015.05;109023;1265;81983;-90
2023/10/17 20:45:47;;;;;;;;;;;;;;;19.05;34.09;101012.45;109013;1266;67084;-90
2023/10/17 20:50:50;;;;;;;;;;;;;;;19.05;34.05;101014.42;109048;1265;66755;-90
2023/10/17 20:53:18;;;;;;;;;;;;;;;19.04;34.07;101015.50;109072;1265;73656;-90
2023/10/17 20:55:49;;;;;;;;;;;;;;;19.04;34.05;101012.08;108994;1266;81898;-88
2023/10/17 20:58:15;;;;;;;;;;;;;;;19.03;34.02;101010.33;109041;1267;72674;-90
2023/10/17 21:00:44;;;;;;;;;;;;;;;19.03;34.08;101011.45;109044;1265;66155;-89
2023/10/17 21:03:09;;;;;;;;;;;;;;;19.03;34.09;101010.58;109060;1265;66844;-89
2023/10/17 21:05:38;;;;;;;;;;;;;;;19.03;34.08;101008.09;108937;1266;66834;-90
2023/10/17 21:08:06;;;;;;;;;;;;;;;19.03;34.11;101005.48;109065;1265;83053;-90
2023/10/17 21:13:00;;;;;;;;;;;;;;;19.03;34.10;100995.38;109030;1265;67416;-91
2023/10/17 21:15:30;;;;;;;;;;;;;;;19.03;34.21;100992.68;109051;1265;66846;-90
2023/10/17 21:17:58;;;;;;;;;;;;;;;19.03;34.25;100992.77;109048;1266;73469;-90
2023/10/17 21:20:25;;;;;;;;;;;;;;;19.02;34.09;100988.42;109065;1265;83325;-90
2023/10/17 21:22:52;;;;;;;;;;;;;;;19.03;34.28;100992.26;109009;1266;66826;-89
2023/10/17 21:25:19;;;;;;;;;;;;;;;19.02;34.30;100987.31;109047;1265;66642;-90
2023/10/17 21:27:48;;;;;;;;;;;;;;;19.02;34.10;100987.98;108998;1266;66924;-90
2023/10/17 21:30:15;;;;;;;;;;;;;;;19.02;34.19;100986.85;109070;1265;73664;-90
2023/10/17 21:32:43;;;;;;;;;;;;;;;19.02;34.28;100987.10;109057;1265;67584;-90
2023/10/17 21:35:12;;;;;;;;;;;;;;;19.02;34.14;100988.23;109049;1266;72209;-90
2023/10/17 21:37:45;;;;;;;;;;;;;;;19.02;34.26;100981.34;109037;1265;66831;-89
2023/10/17 21:40:12;;;;;;;;;;;;;;;19.02;34.29;100984.70;109040;1265;66756;-90
2023/10/17 21:42:37;;;;;;;;;;;;;;;19.02;34.17;100983.73;109088;1266;73521;-90
2023/10/17 21:45:07;;;;;;;;;;;;;;;19.02;34.18;100982.48;109064;1265;66132;-90
2023/10/17 21:47:38;;;;;;;;;;;;;;;19.02;34.28;100981.19;109014;1265;72403;-90
2023/10/17 21:50:05;;;;;;;;;;;;;;;19.01;34.35;100982.55;109012;1267;66751;-89
2023/10/17 21:52:51;;;;;;;;;;;;;;;19.01;34.30;100984.60;109000;1267;66784;31
2023/10/17 21:57:48;;;;;;;;;;;;;;;19.00;34.36;100987.20;109028;1265;83500;-90
2023/10/17 22:00:28;;;;;;;;;;;;;;;19.01;34.38;100988.63;108994;1266;66771;-91
2023/10/17 22:02:55;;;;;;;;;;;;;;;19.01;34.32;100985.10;109044;1266;66944;-90
2023/10/17 22:05:24;;;;;;;;;;;;;;;19.01;34.38;100986.23;109070;1265;66928;-90
2023/10/17 22:07:51;;;;;;;;;;;;;;;19.00;34.26;100987.29;109066;1266;66811;-90
2023/10/17 22:10:17;;;;;;;;;;;;;;;19.01;34.31;100988.63;108992;1266;66758;-90
2023/10/17 22:12:43;;;;;;;;;;;;;;;19.01;34.44;100988.63;108982;1265;66719;-90
2023/10/17 22:15:12;;;;;;;;;;;;;;;19.00;34.39;100986.17;108988;1266;66873;-90
2023/10/17 22:17:40;;;;;;;;;;;;;;;19.00;34.45;100988.41;109069;1266;66756;-89
2023/10/17 22:20:08;;;;;;;;;;;;;;;19.00;34.55;100984.64;109132;1266;73479;-89
2023/10/17 22:22:34;;;;;;;;;;;;;;;19.00;34.44;100982.49;109031;1266;81197;-89
2023/10/17 22:24:59;;;;;;;;;;;;;;;18.99;34.59;100981.01;108997;1266;66924;-89
2023/10/17 22:27:25;;;;;;;;;;;;;;;19.00;34.55;100980.90;108999;1266;66117;-89
2023/10/17 22:29:50;;;;;;;;;;;;;;;19.00;34.65;100977.63;109023;1266;66643;-90
2023/10/17 22:32:16;;;;;;;;;;;;;;;19.00;34.55;100979.23;109044;1266;66845;-90
2023/10/17 22:34:43;;;;;;;;;;;;;;;19.00;34.62;100980.98;109038;1266;72452;-89
2023/10/17 22:37:13;;;;;;;;;;;;;;;19.00;34.50;100979.38;109025;1266;67149;-90
2023/10/17 22:39:39;;;;;;;;;;;;;;;19.00;34.59;100982.84;109031;1266;66926;-90
2023/10/17 22:42:04;;;;;;;;;;;;;;;19.00;34.58;100985.95;108963;1266;66501;-90
2023/10/17 22:44:30;;;;;;;;;;;;;;;19.00;34.57;100989.16;109054;1266;66798;-89
2023/10/17 22:46:56;;;;;;;;;;;;;;;18.99;34.62;100986.46;108954;1264;66641;-89
2023/10/17 22:49:24;;;;;;;;;;;;;;;19.00;34.58;100988.05;108994;1265;66779;-89
2023/10/17 22:51:50;;;;;;;;;;;;;;;19.00;34.55;100990.85;109074;1265;66787;-89
2023/10/17 22:57:01;;;;;;;;;;;;;;;19.00;34.69;100991.98;109090;1266;82810;-89
2023/10/17 22:59:30;;;;;;;;;;;;;;;19.00;34.71;100993.48;109039;1263;72730;-90
2023/10/17 23:01:58;;;;;;;;;;;;;;;18.99;34.72;100992.32;108969;1266;66705;-89
2023/10/17 23:04:26;;;;;;;;;;;;;;;18.99;34.75;100992.98;109111;1263;66991;-89
2023/10/17 23:06:53;;;;;;;;;;;;;;;18.99;34.79;100993.69;108997;1266;74610;-89
2023/10/17 23:09:19;;;;;;;;;;;;;;;18.99;34.66;100987.83;109040;1266;82491;-89
2023/10/17 23:11:45;;;;;;;;;;;;;;;18.99;34.78;100987.94;109031;1265;67193;-90
2023/10/17 23:14:13;;;;;;;;;;;;;;;18.99;34.73;100983.03;109042;1265;66729;-89
2023/10/17 23:16:41;;;;;;;;;;;;;;;18.99;34.73;100982.41;109043;1265;67216;-90
2023/10/17 23:19:16;;;;;;;;;;;;;;;18.99;34.71;100982.87;109060;1266;73441;31
2023/10/17 23:21:43;;;;;;;;;;;;;;;18.98;34.77;100983.88;109043;1266;83320;-89
2023/10/17 23:24:14;;;;;;;;;;;;;;;18.98;34.75;100987.39;108991;1266;66727;-89
2023/10/17 23:26:40;;;;;;;;;;;;;;;18.98;34.74;100988.37;109048;1266;66752;-89
2023/10/17 23:29:08;;;;;;;;;;;;;;;18.97;34.96;100983.52;108996;1266;66731;-89
2023/10/17 23:31:37;;;;;;;;;;;;;;;18.97;34.76;100981.27;109056;1265;73638;-89
2023/10/17 23:34:15;;;;;;;;;;;;;;;18.97;34.77;100982.80;109084;1265;82520;31
2023/10/17 23:36:42;;;;;;;;;;;;;;;18.97;34.84;100984.64;108980;1268;73406;-89
2023/10/17 23:39:16;;;;;;;;;;;;;;;18.98;34.82;100982.30;108945;1266;66853;-89
2023/10/17 23:41:45;;;;;;;;;;;;;;;18.97;34.80;100979.68;109036;1265;67174;-90
2023/10/17 23:44:14;;;;;;;;;;;;;;;18.97;34.84;100980.09;109062;1265;73371;-90
2023/10/17 23:46:43;;;;;;;;;;;;;;;18.97;34.86;100977.69;109043;1265;82052;-90
2023/10/17 23:49:16;;;;;;;;;;;;;;;18.97;34.86;100975.61;109084;1264;71421;31
2023/10/17 23:51:42;;;;;;;;;;;;;;;18.97;34.85;100976.27;109182;1267;67193;-90
2023/10/17 23:54:10;;;;;;;;;;;;;;;18.96;34.95;100975.23;109110;1265;67892;-90
2023/10/17 23:56:38;;;;;;;;;;;;;;;18.97;34.92;100976.27;109233;1265;73508;-89
2023/10/17 23:59:04;;;;;;;;;;;;;;;18.97;34.86;100974.17;109209;1266;82100;-89
